<?xml version="1.0" encoding="UTF-8" standalone="no" ?>
<gpx xmlns="http://www.topografix.com/GPX/1/1" xmlns:xsi="http://www.w3.org/2001/XMLSchema-instance" xsi:schemaLocation="http://www.topografix.com/GPX/1/1 http://www.topografix.com/GPX/1/1/gpx.xsd" version="1.1" creator="VisuGPX - https://www.visugpx.com">
  <metadata>
    <name>Chemere_IlesEnchanteesChenes_8-24km</name>
    <desc><![CDATA[gnerando idor: 8320456_12674239_13308104]]></desc>
  </metadata>
  <trk>
    <name><![CDATA[Chemere_IlesEnchantees_23.9km-8320456]]></name>
    <extensions>
      <line xmlns="http://www.topografix.com/GPX/gpx_style/0/2">
        <color>0000FF</color>
        <width>4</width>
      </line>
    </extensions>
    <trkseg>
      <trkpt lat="47.12564" lon="-1.91442">
        <ele>7</ele>
        <time>2023-11-01T12:59:08Z</time>
      </trkpt>
      <trkpt lat="47.12551" lon="-1.91505">
        <ele>7</ele>
        <time>2023-11-01T13:00:08Z</time>
      </trkpt>
      <trkpt lat="47.12557" lon="-1.91553">
        <ele>8</ele>
        <time>2023-11-01T13:00:52Z</time>
      </trkpt>
      <trkpt lat="47.12576" lon="-1.91636">
        <ele>8</ele>
        <time>2023-11-01T13:02:12Z</time>
      </trkpt>
      <trkpt lat="47.12575" lon="-1.91707">
        <ele>8</ele>
        <time>2023-11-01T13:03:16Z</time>
      </trkpt>
      <trkpt lat="47.12577" lon="-1.91796">
        <ele>9</ele>
        <time>2023-11-01T13:04:37Z</time>
      </trkpt>
      <trkpt lat="47.12536" lon="-1.91858">
        <ele>10</ele>
        <time>2023-11-01T13:05:55Z</time>
      </trkpt>
      <trkpt lat="47.12661" lon="-1.9197">
        <ele>12</ele>
        <time>2023-11-01T13:09:11Z</time>
      </trkpt>
      <trkpt lat="47.12713" lon="-1.92088">
        <ele>11</ele>
        <time>2023-11-01T13:11:18Z</time>
      </trkpt>
      <trkpt lat="47.12914" lon="-1.91914">
        <ele>12</ele>
        <time>2023-11-01T13:16:30Z</time>
      </trkpt>
      <trkpt lat="47.12991" lon="-1.92072">
        <ele>13</ele>
        <time>2023-11-01T13:19:26Z</time>
      </trkpt>
      <trkpt lat="47.13359" lon="-1.91934">
        <ele>16</ele>
        <time>2023-11-01T13:27:53Z</time>
      </trkpt>
      <trkpt lat="47.13459" lon="-1.92006">
        <ele>14</ele>
        <time>2023-11-01T13:30:22Z</time>
      </trkpt>
      <trkpt lat="47.13768" lon="-1.91281">
        <ele>13</ele>
        <time>2023-11-01T13:43:18Z</time>
      </trkpt>
      <trkpt lat="47.13612" lon="-1.91143">
        <ele>13</ele>
        <time>2023-11-01T13:47:21Z</time>
      </trkpt>
      <trkpt lat="47.13542" lon="-1.9123">
        <ele>13</ele>
        <time>2023-11-01T13:49:24Z</time>
      </trkpt>
      <trkpt lat="47.13522" lon="-1.91175">
        <ele>14</ele>
        <time>2023-11-01T13:50:20Z</time>
      </trkpt>
      <trkpt lat="47.13471" lon="-1.91137">
        <ele>14</ele>
        <time>2023-11-01T13:51:36Z</time>
      </trkpt>
      <trkpt lat="47.13466" lon="-1.9106">
        <ele>16</ele>
        <time>2023-11-01T13:52:47Z</time>
      </trkpt>
      <trkpt lat="47.13489" lon="-1.91049">
        <ele>17</ele>
        <time>2023-11-01T13:53:19Z</time>
      </trkpt>
      <trkpt lat="47.13401" lon="-1.90669">
        <ele>18</ele>
        <time>2023-11-01T13:59:23Z</time>
      </trkpt>
      <trkpt lat="47.13486" lon="-1.90676">
        <ele>17</ele>
        <time>2023-11-01T14:01:17Z</time>
      </trkpt>
      <trkpt lat="47.1355" lon="-1.90748">
        <ele>16</ele>
        <time>2023-11-01T14:03:04Z</time>
      </trkpt>
      <trkpt lat="47.13679" lon="-1.90726">
        <ele>16</ele>
        <time>2023-11-01T14:05:58Z</time>
      </trkpt>
      <trkpt lat="47.13724" lon="-1.90761">
        <ele>17</ele>
        <time>2023-11-01T14:07:06Z</time>
      </trkpt>
      <trkpt lat="47.13752" lon="-1.90698">
        <ele>17</ele>
        <time>2023-11-01T14:08:14Z</time>
      </trkpt>
      <trkpt lat="47.13733" lon="-1.90619">
        <ele>17</ele>
        <time>2023-11-01T14:09:30Z</time>
      </trkpt>
      <trkpt lat="47.13779" lon="-1.90231">
        <ele>21</ele>
        <time>2023-11-01T14:15:28Z</time>
      </trkpt>
      <trkpt lat="47.13948" lon="-1.89866">
        <ele>20</ele>
        <time>2023-11-01T14:22:08Z</time>
      </trkpt>
      <trkpt lat="47.14369" lon="-1.90145">
        <ele>24</ele>
        <time>2023-11-01T14:32:25Z</time>
      </trkpt>
      <trkpt lat="47.14602" lon="-1.89579">
        <ele>23</ele>
        <time>2023-11-01T14:42:25Z</time>
      </trkpt>
      <trkpt lat="47.14763" lon="-1.89883">
        <ele>32</ele>
        <time>2023-11-01T14:48:15Z</time>
      </trkpt>
      <trkpt lat="47.1478" lon="-1.90038">
        <ele>32</ele>
        <time>2023-11-01T14:50:37Z</time>
      </trkpt>
      <trkpt lat="47.14862" lon="-1.90175">
        <ele>33</ele>
        <time>2023-11-01T14:53:23Z</time>
      </trkpt>
      <trkpt lat="47.14934" lon="-1.90097">
        <ele>33</ele>
        <time>2023-11-01T14:55:22Z</time>
      </trkpt>
      <trkpt lat="47.14959" lon="-1.89983">
        <ele>33</ele>
        <time>2023-11-01T14:57:11Z</time>
      </trkpt>
      <trkpt lat="47.15035" lon="-1.89868">
        <ele>31</ele>
        <time>2023-11-01T14:59:37Z</time>
      </trkpt>
      <trkpt lat="47.15098" lon="-1.89772">
        <ele>32</ele>
        <time>2023-11-01T15:01:38Z</time>
      </trkpt>
      <trkpt lat="47.15376" lon="-1.89274">
        <ele>47</ele>
        <time>2023-11-01T15:11:22Z</time>
      </trkpt>
      <trkpt lat="47.15405" lon="-1.88866">
        <ele>47</ele>
        <time>2023-11-01T15:17:35Z</time>
      </trkpt>
      <trkpt lat="47.15647" lon="-1.8869">
        <ele>46</ele>
        <time>2023-11-01T15:23:35Z</time>
      </trkpt>
      <trkpt lat="47.15414" lon="-1.87922">
        <ele>37</ele>
        <time>2023-11-01T15:36:18Z</time>
      </trkpt>
      <trkpt lat="47.15513" lon="-1.87798">
        <ele>38</ele>
        <time>2023-11-01T15:39:12Z</time>
      </trkpt>
      <trkpt lat="47.15618" lon="-1.87613">
        <ele>37</ele>
        <time>2023-11-01T15:42:50Z</time>
      </trkpt>
      <trkpt lat="47.15562" lon="-1.87472">
        <ele>35</ele>
        <time>2023-11-01T15:45:18Z</time>
      </trkpt>
      <trkpt lat="47.15548" lon="-1.87364">
        <ele>34</ele>
        <time>2023-11-01T15:46:58Z</time>
      </trkpt>
      <trkpt lat="47.15309" lon="-1.87326">
        <ele>31</ele>
        <time>2023-11-01T15:52:19Z</time>
      </trkpt>
      <trkpt lat="47.15568" lon="-1.86454">
        <ele>36</ele>
        <time>2023-11-01T16:06:42Z</time>
      </trkpt>
      <trkpt lat="47.15811" lon="-1.85822">
        <ele>39</ele>
        <time>2023-11-01T16:17:41Z</time>
      </trkpt>
      <trkpt lat="47.1557" lon="-1.85432">
        <ele>37</ele>
        <time>2023-11-01T16:25:39Z</time>
      </trkpt>
      <trkpt lat="47.15354" lon="-1.85165">
        <ele>32</ele>
        <time>2023-11-01T16:31:56Z</time>
      </trkpt>
      <trkpt lat="47.15153" lon="-1.85107">
        <ele>33</ele>
        <time>2023-11-01T16:36:29Z</time>
      </trkpt>
      <trkpt lat="47.1425" lon="-1.85158">
        <ele>31</ele>
        <time>2023-11-01T16:56:35Z</time>
      </trkpt>
      <trkpt lat="47.13268" lon="-1.85394">
        <ele>15</ele>
        <time>2023-11-01T17:18:43Z</time>
      </trkpt>
      <trkpt lat="47.13279" lon="-1.85959">
        <ele>12</ele>
        <time>2023-11-01T17:27:16Z</time>
      </trkpt>
      <trkpt lat="47.13229" lon="-1.8595">
        <ele>12</ele>
        <time>2023-11-01T17:28:23Z</time>
      </trkpt>
      <trkpt lat="47.1322" lon="-1.8541">
        <ele>15</ele>
        <time>2023-11-01T17:36:34Z</time>
      </trkpt>
      <trkpt lat="47.11879" lon="-1.85721">
        <ele>22</ele>
        <time>2023-11-01T18:06:46Z</time>
      </trkpt>
      <trkpt lat="47.11832" lon="-1.85506">
        <ele>19</ele>
        <time>2023-11-01T18:10:11Z</time>
      </trkpt>
      <trkpt lat="47.11482" lon="-1.85583">
        <ele>17</ele>
        <time>2023-11-01T18:18:03Z</time>
      </trkpt>
      <trkpt lat="47.114" lon="-1.85738">
        <ele>12</ele>
        <time>2023-11-01T18:21:01Z</time>
      </trkpt>
      <trkpt lat="47.10536" lon="-1.86339">
        <ele>13</ele>
        <time>2023-11-01T18:42:17Z</time>
      </trkpt>
      <trkpt lat="47.10267" lon="-1.86528">
        <ele>14</ele>
        <time>2023-11-01T18:48:55Z</time>
      </trkpt>
      <trkpt lat="47.10185" lon="-1.87472">
        <ele>13</ele>
        <time>2023-11-01T19:03:19Z</time>
      </trkpt>
      <trkpt lat="47.10185" lon="-1.87669">
        <ele>14</ele>
        <time>2023-11-01T19:06:18Z</time>
      </trkpt>
      <trkpt lat="47.10109" lon="-1.87866">
        <ele>13</ele>
        <time>2023-11-01T19:09:44Z</time>
      </trkpt>
      <trkpt lat="47.09969" lon="-1.8815">
        <ele>14</ele>
        <time>2023-11-01T19:15:02Z</time>
      </trkpt>
      <trkpt lat="47.10039" lon="-1.88545">
        <ele>11</ele>
        <time>2023-11-01T19:21:13Z</time>
      </trkpt>
      <trkpt lat="47.10361" lon="-1.88596">
        <ele>11</ele>
        <time>2023-11-01T19:28:25Z</time>
      </trkpt>
      <trkpt lat="47.10594" lon="-1.88605">
        <ele>10</ele>
        <time>2023-11-01T19:33:36Z</time>
      </trkpt>
      <trkpt lat="47.10752" lon="-1.8845">
        <ele>9</ele>
        <time>2023-11-01T19:37:50Z</time>
      </trkpt>
      <trkpt lat="47.10846" lon="-1.88699">
        <ele>9</ele>
        <time>2023-11-01T19:42:08Z</time>
      </trkpt>
      <trkpt lat="47.10764" lon="-1.89085">
        <ele>11</ele>
        <time>2023-11-01T19:48:16Z</time>
      </trkpt>
      <trkpt lat="47.10951" lon="-1.89583">
        <ele>15</ele>
        <time>2023-11-01T19:56:52Z</time>
      </trkpt>
      <trkpt lat="47.10974" lon="-1.89703">
        <ele>13</ele>
        <time>2023-11-01T19:58:46Z</time>
      </trkpt>
      <trkpt lat="47.11056" lon="-1.89866">
        <ele>12</ele>
        <time>2023-11-01T20:01:50Z</time>
      </trkpt>
      <trkpt lat="47.11126" lon="-1.90235">
        <ele>11</ele>
        <time>2023-11-01T20:07:38Z</time>
      </trkpt>
      <trkpt lat="47.11284" lon="-1.9051">
        <ele>12</ele>
        <time>2023-11-01T20:13:04Z</time>
      </trkpt>
      <trkpt lat="47.11412" lon="-1.90836">
        <ele>9</ele>
        <time>2023-11-01T20:18:46Z</time>
      </trkpt>
      <trkpt lat="47.11547" lon="-1.91051">
        <ele>8</ele>
        <time>2023-11-01T20:23:12Z</time>
      </trkpt>
      <trkpt lat="47.11739" lon="-1.91652">
        <ele>13</ele>
        <time>2023-11-01T20:33:15Z</time>
      </trkpt>
      <trkpt lat="47.11874" lon="-1.9166">
        <ele>14</ele>
        <time>2023-11-01T20:36:15Z</time>
      </trkpt>
      <trkpt lat="47.1206" lon="-1.91437">
        <ele>12</ele>
        <time>2023-11-01T20:41:35Z</time>
      </trkpt>
      <trkpt lat="47.12131" lon="-1.91291">
        <ele>10</ele>
        <time>2023-11-01T20:44:18Z</time>
      </trkpt>
      <trkpt lat="47.12218" lon="-1.91411">
        <ele>10</ele>
        <time>2023-11-01T20:46:58Z</time>
      </trkpt>
      <trkpt lat="47.123" lon="-1.91308">
        <ele>8</ele>
        <time>2023-11-01T20:49:22Z</time>
      </trkpt>
      <trkpt lat="47.12411" lon="-1.91437">
        <ele>6</ele>
        <time>2023-11-01T20:52:30Z</time>
      </trkpt>
      <trkpt lat="47.12557" lon="-1.91454">
        <ele>7</ele>
        <time>2023-11-01T20:55:46Z</time>
      </trkpt>
      <trkpt lat="47.12586" lon="-1.91437">
        <ele>7</ele>
        <time>2023-11-01T20:56:28Z</time>
      </trkpt>
      <trkpt lat="47.12656" lon="-1.91446">
        <ele>8</ele>
        <time>2023-11-01T20:58:01Z</time>
      </trkpt>
    </trkseg>
  </trk>
</gpx>